sensor_id;sensor_type;location;lat;lon;timestamp;pressure;altitude;pressure_sealevel;temperature;humidity
71165;BME280;58859;55.132;-1.586;2023-04-06T00:02:06;100719.94;;;13.57;100.00
71165;BME280;58859;55.132;-1.586;2023-04-06T00:04:31;100730.53;;;13.71;100.00
71165;BME280;58859;55.132;-1.586;2023-04-06T00:06:57;100729.22;;;13.75;100.00
71165;BME280;58859;55.132;-1.586;2023-04-06T00:09:22;100722.66;;;13.79;100.00
71165;BME280;58859;55.132;-1.586;2023-04-06T00:11:47;100723.09;;;13.99;100.00
71165;BME280;58859;55.132;-1.586;2023-04-06T00:14:13;100710.88;;;13.92;100.00
71165;BME280;58859;55.132;-1.586;2023-04-06T00:16:39;100717.06;;;13.91;100.00
71165;BME280;58859;55.132;-1.586;2023-04-06T00:19:04;100711.72;;;13.84;100.00
71165;BME280;58859;55.132;-1.586;2023-04-06T00:21:30;100724.59;;;13.86;100.00
71165;BME280;58859;55.132;-1.586;2023-04-06T00:23:56;100700.78;;;13.80;100.00
71165;BME280;58859;55.132;-1.586;2023-04-06T00:26:21;100713.03;;;13.80;100.00
71165;BME280;58859;55.132;-1.586;2023-04-06T00:28:46;100704.22;;;13.73;100.00
71165;BME280;58859;55.132;-1.586;2023-04-06T00:31:12;100696.84;;;13.76;100.00
71165;BME280;58859;55.132;-1.586;2023-04-06T00:33:37;100696.13;;;13.44;100.00
71165;BME280;58859;55.132;-1.586;2023-04-06T00:36:03;100691.06;;;13.50;100.00
71165;BME280;58859;55.132;-1.586;2023-04-06T00:38:28;100678.81;;;13.35;100.00
71165;BME280;58859;55.132;-1.586;2023-04-06T00:40:54;100677.88;;;13.19;100.00
71165;BME280;58859;55.132;-1.586;2023-04-06T00:43:19;100679.00;;;13.33;100.00
71165;BME280;58859;55.132;-1.586;2023-04-06T00:45:44;100682.22;;;13.51;100.00
71165;BME280;58859;55.132;-1.586;2023-04-06T00:48:10;100674.56;;;13.50;100.00
71165;BME280;58859;55.132;-1.586;2023-04-06T00:50:35;100671.81;;;13.27;100.00
71165;BME280;58859;55.132;-1.586;2023-04-06T00:53:01;100674.41;;;13.35;100.00
71165;BME280;58859;55.132;-1.586;2023-04-06T00:55:27;100666.88;;;13.48;100.00
71165;BME280;58859;55.132;-1.586;2023-04-06T00:57:53;100656.97;;;13.19;100.00
71165;BME280;58859;55.132;-1.586;2023-04-06T01:00:18;100666.66;;;13.66;100.00
71165;BME280;58859;55.132;-1.586;2023-04-06T01:02:44;100662.28;;;13.58;100.00
71165;BME280;58859;55.132;-1.586;2023-04-06T01:05:10;100659.56;;;13.28;100.00
71165;BME280;58859;55.132;-1.586;2023-04-06T01:07:36;100664.97;;;13.10;100.00
71165;BME280;58859;55.132;-1.586;2023-04-06T01:10:01;100655.28;;;13.43;100.00
71165;BME280;58859;55.132;-1.586;2023-04-06T01:12:28;100648.94;;;13.37;100.00
71165;BME280;58859;55.132;-1.586;2023-04-06T01:14:53;100656.75;;;13.37;100.00
71165;BME280;58859;55.132;-1.586;2023-04-06T01:17:18;100654.03;;;13.31;100.00
71165;BME280;58859;55.132;-1.586;2023-04-06T01:19:44;100648.31;;;13.27;100.00
71165;BME280;58859;55.132;-1.586;2023-04-06T01:22:15;100646.00;;;13.32;100.00
71165;BME280;58859;55.132;-1.586;2023-04-06T01:24:41;100635.91;;;13.13;100.00
71165;BME280;58859;55.132;-1.586;2023-04-06T01:27:06;100624.34;;;13.07;100.00
71165;BME280;58859;55.132;-1.586;2023-04-06T01:29:32;100630.88;;;13.19;100.00
71165;BME280;58859;55.132;-1.586;2023-04-06T01:31:57;100629.72;;;13.14;100.00
71165;BME280;58859;55.132;-1.586;2023-04-06T01:34:22;100625.16;;;13.16;100.00
71165;BME280;58859;55.132;-1.586;2023-04-06T01:36:48;100629.88;;;13.12;100.00
71165;BME280;58859;55.132;-1.586;2023-04-06T01:39:13;100618.78;;;13.10;100.00
71165;BME280;58859;55.132;-1.586;2023-04-06T01:41:39;100616.69;;;13.14;100.00
71165;BME280;58859;55.132;-1.586;2023-04-06T01:44:04;100602.63;;;13.15;100.00
71165;BME280;58859;55.132;-1.586;2023-04-06T01:46:29;100609.31;;;13.09;100.00
71165;BME280;58859;55.132;-1.586;2023-04-06T01:48:55;100609.16;;;13.19;100.00
71165;BME280;58859;55.132;-1.586;2023-04-06T01:51:20;100595.28;;;12.86;100.00
71165;BME280;58859;55.132;-1.586;2023-04-06T01:53:46;100592.00;;;13.00;100.00
71165;BME280;58859;55.132;-1.586;2023-04-06T01:56:11;100602.59;;;13.07;100.00
71165;BME280;58859;55.132;-1.586;2023-04-06T01:58:37;100587.28;;;12.96;100.00
71165;BME280;58859;55.132;-1.586;2023-04-06T02:01:02;100585.28;;;13.06;100.00
71165;BME280;58859;55.132;-1.586;2023-04-06T02:03:27;100586.13;;;13.14;100.00
71165;BME280;58859;55.132;-1.586;2023-04-06T02:05:53;100585.31;;;13.22;100.00
71165;BME280;58859;55.132;-1.586;2023-04-06T02:08:18;100592.69;;;13.10;100.00
71165;BME280;58859;55.132;-1.586;2023-04-06T02:10:44;100577.94;;;13.25;100.00
71165;BME280;58859;55.132;-1.586;2023-04-06T02:13:09;100584.81;;;13.27;100.00
71165;BME280;58859;55.132;-1.586;2023-04-06T02:15:34;100585.63;;;13.27;100.00
71165;BME280;58859;55.132;-1.586;2023-04-06T02:18:00;100575.34;;;13.17;100.00
71165;BME280;58859;55.132;-1.586;2023-04-06T02:20:25;100567.22;;;12.96;100.00
71165;BME280;58859;55.132;-1.586;2023-04-06T02:22:51;100577.94;;;13.25;100.00
71165;BME280;58859;55.132;-1.586;2023-04-06T02:25:16;100573.41;;;13.19;100.00
71165;BME280;58859;55.132;-1.586;2023-04-06T02:27:42;100577.50;;;13.14;100.00
71165;BME280;58859;55.132;-1.586;2023-04-06T02:30:07;100567.38;;;13.11;100.00
71165;BME280;58859;55.132;-1.586;2023-04-06T02:32:33;100565.56;;;13.11;100.00
71165;BME280;58859;55.132;-1.586;2023-04-06T02:34:59;100561.50;;;13.01;100.00
71165;BME280;58859;55.132;-1.586;2023-04-06T02:37:25;100558.91;;;12.85;100.00
71165;BME280;58859;55.132;-1.586;2023-04-06T02:39:51;100558.22;;;13.07;100.00
71165;BME280;58859;55.132;-1.586;2023-04-06T02:42:16;100555.78;;;12.89;100.00
71165;BME280;58859;55.132;-1.586;2023-04-06T02:44:42;100547.13;;;13.13;100.00
71165;BME280;58859;55.132;-1.586;2023-04-06T02:47:08;100551.53;;;13.04;100.00
71165;BME280;58859;55.132;-1.586;2023-04-06T02:49:33;100544.53;;;13.05;100.00
71165;BME280;58859;55.132;-1.586;2023-04-06T02:51:59;100548.94;;;12.96;100.00
71165;BME280;58859;55.132;-1.586;2023-04-06T02:54:24;100537.50;;;12.97;100.00
71165;BME280;58859;55.132;-1.586;2023-04-06T02:56:50;100554.66;;;13.16;100.00
71165;BME280;58859;55.132;-1.586;2023-04-06T02:59:15;100544.19;;;12.92;100.00
71165;BME280;58859;55.132;-1.586;2023-04-06T03:01:40;100543.41;;;12.91;100.00
71165;BME280;58859;55.132;-1.586;2023-04-06T03:04:06;100547.78;;;12.99;100.00
71165;BME280;58859;55.132;-1.586;2023-04-06T03:06:31;100535.25;;;12.78;100.00
71165;BME280;58859;55.132;-1.586;2023-04-06T03:08:57;100524.97;;;12.85;100.00
71165;BME280;58859;55.132;-1.586;2023-04-06T03:11:22;100514.25;;;12.47;100.00
71165;BME280;58859;55.132;-1.586;2023-04-06T03:13:47;100526.59;;;12.86;100.00
71165;BME280;58859;55.132;-1.586;2023-04-06T03:16:13;100525.00;;;12.60;100.00
71165;BME280;58859;55.132;-1.586;2023-04-06T03:18:38;100525.47;;;12.88;100.00
71165;BME280;58859;55.132;-1.586;2023-04-06T03:21:03;100527.28;;;12.55;100.00
71165;BME280;58859;55.132;-1.586;2023-04-06T03:23:29;100519.91;;;12.83;100.00
71165;BME280;58859;55.132;-1.586;2023-04-06T03:25:54;100520.28;;;12.56;100.00
71165;BME280;58859;55.132;-1.586;2023-04-06T03:28:20;100515.13;;;13.19;100.00
71165;BME280;58859;55.132;-1.586;2023-04-06T03:30:46;100512.75;;;12.77;100.00
71165;BME280;58859;55.132;-1.586;2023-04-06T03:33:11;100517.00;;;12.78;100.00
71165;BME280;58859;55.132;-1.586;2023-04-06T03:35:36;100508.53;;;12.68;100.00
71165;BME280;58859;55.132;-1.586;2023-04-06T03:38:03;100496.88;;;13.11;100.00
71165;BME280;58859;55.132;-1.586;2023-04-06T03:40:30;100498.84;;;12.93;100.00
71165;BME280;58859;55.132;-1.586;2023-04-06T03:42:55;100496.47;;;12.67;100.00
71165;BME280;58859;55.132;-1.586;2023-04-06T03:45:20;100492.78;;;13.00;100.00
71165;BME280;58859;55.132;-1.586;2023-04-06T03:47:46;100506.38;;;12.72;100.00
71165;BME280;58859;55.132;-1.586;2023-04-06T03:50:11;100499.13;;;12.43;100.00
71165;BME280;58859;55.132;-1.586;2023-04-06T03:52:37;100490.66;;;13.12;100.00
71165;BME280;58859;55.132;-1.586;2023-04-06T03:55:02;100496.88;;;12.95;100.00
71165;BME280;58859;55.132;-1.586;2023-04-06T03:57:28;100465.25;;;12.90;100.00
71165;BME280;58859;55.132;-1.586;2023-04-06T03:59:53;100489.34;;;13.00;100.00
71165;BME280;58859;55.132;-1.586;2023-04-06T04:02:18;100501.16;;;12.88;100.00
71165;BME280;58859;55.132;-1.586;2023-04-06T04:04:44;100483.00;;;13.02;100.00
71165;BME280;58859;55.132;-1.586;2023-04-06T04:07:09;100483.25;;;13.32;100.00
71165;BME280;58859;55.132;-1.586;2023-04-06T04:09:34;100496.63;;;13.37;100.00
71165;BME280;58859;55.132;-1.586;2023-04-06T04:12:00;100493.16;;;13.44;100.00
71165;BME280;58859;55.132;-1.586;2023-04-06T04:14:25;100455.44;;;12.37;100.00
71165;BME280;58859;55.132;-1.586;2023-04-06T04:16:51;100493.88;;;12.59;100.00
71165;BME280;58859;55.132;-1.586;2023-04-06T04:19:16;100492.78;;;13.16;100.00
71165;BME280;58859;55.132;-1.586;2023-04-06T04:21:46;100500.41;;;13.57;100.00
71165;BME280;58859;55.132;-1.586;2023-04-06T04:24:12;100501.84;;;12.74;100.00
71165;BME280;58859;55.132;-1.586;2023-04-06T04:26:38;100503.78;;;12.80;100.00
71165;BME280;58859;55.132;-1.586;2023-04-06T04:29:04;100505.13;;;12.67;100.00
71165;BME280;58859;55.132;-1.586;2023-04-06T04:31:29;100494.09;;;13.12;100.00
71165;BME280;58859;55.132;-1.586;2023-04-06T04:33:55;100507.72;;;12.59;100.00
71165;BME280;58859;55.132;-1.586;2023-04-06T04:36:20;100502.97;;;12.63;100.00
71165;BME280;58859;55.132;-1.586;2023-04-06T04:38:46;100503.00;;;12.71;100.00
71165;BME280;58859;55.132;-1.586;2023-04-06T04:41:11;100499.06;;;13.38;100.00
71165;BME280;58859;55.132;-1.586;2023-04-06T04:43:36;100505.59;;;12.71;100.00
71165;BME280;58859;55.132;-1.586;2023-04-06T04:46:02;100499.69;;;12.85;100.00
71165;BME280;58859;55.132;-1.586;2023-04-06T04:48:29;100502.78;;;12.89;100.00
71165;BME280;58859;55.132;-1.586;2023-04-06T04:50:54;100500.97;;;13.13;100.00
71165;BME280;58859;55.132;-1.586;2023-04-06T04:53:20;100485.44;;;13.12;100.00
71165;BME280;58859;55.132;-1.586;2023-04-06T04:55:45;100499.22;;;12.82;100.00
71165;BME280;58859;55.132;-1.586;2023-04-06T04:58:11;100505.59;;;12.79;100.00
71165;BME280;58859;55.132;-1.586;2023-04-06T05:00:40;100503.44;;;12.91;100.00
71165;BME280;58859;55.132;-1.586;2023-04-06T05:03:06;100490.19;;;13.00;100.00
71165;BME280;58859;55.132;-1.586;2023-04-06T05:05:31;100494.53;;;13.24;100.00
71165;BME280;58859;55.132;-1.586;2023-04-06T05:07:57;100501.03;;;12.73;100.00
71165;BME280;58859;55.132;-1.586;2023-04-06T05:10:22;100504.59;;;12.72;100.00
71165;BME280;58859;55.132;-1.586;2023-04-06T05:12:48;100504.94;;;12.61;100.00
71165;BME280;58859;55.132;-1.586;2023-04-06T05:15:13;100498.91;;;12.52;100.00
71165;BME280;58859;55.132;-1.586;2023-04-06T05:17:39;100501.38;;;12.62;100.00
71165;BME280;58859;55.132;-1.586;2023-04-06T05:20:05;100501.03;;;12.73;100.00
71165;BME280;58859;55.132;-1.586;2023-04-06T05:22:30;100497.94;;;12.61;100.00
71165;BME280;58859;55.132;-1.586;2023-04-06T05:24:56;100497.13;;;12.53;100.00
71165;BME280;58859;55.132;-1.586;2023-04-06T05:27:21;100500.66;;;12.84;100.00
71165;BME280;58859;55.132;-1.586;2023-04-06T05:29:47;100492.81;;;12.92;100.00
71165;BME280;58859;55.132;-1.586;2023-04-06T05:32:12;100496.78;;;12.64;100.00
71165;BME280;58859;55.132;-1.586;2023-04-06T05:34:38;100496.28;;;12.85;100.00
71165;BME280;58859;55.132;-1.586;2023-04-06T05:37:04;100495.06;;;13.03;100.00
71165;BME280;58859;55.132;-1.586;2023-04-06T05:39:29;100483.72;;;12.88;100.00
71165;BME280;58859;55.132;-1.586;2023-04-06T05:41:55;100489.41;;;13.08;100.00
71165;BME280;58859;55.132;-1.586;2023-04-06T05:44:20;100493.69;;;13.32;100.00
71165;BME280;58859;55.132;-1.586;2023-04-06T05:46:46;100493.19;;;13.36;100.00
71165;BME280;58859;55.132;-1.586;2023-04-06T05:49:11;100484.72;;;13.26;100.00
71165;BME280;58859;55.132;-1.586;2023-04-06T05:51:37;100477.09;;;13.24;100.00
71165;BME280;58859;55.132;-1.586;2023-04-06T05:54:03;100497.06;;;12.93;100.00
71165;BME280;58859;55.132;-1.586;2023-04-06T05:56:28;100494.94;;;12.97;100.00
71165;BME280;58859;55.132;-1.586;2023-04-06T05:58:55;100479.81;;;13.31;100.00
71165;BME280;58859;55.132;-1.586;2023-04-06T06:01:20;100481.09;;;12.88;100.00
71165;BME280;58859;55.132;-1.586;2023-04-06T06:03:46;100489.44;;;13.69;100.00
71165;BME280;58859;55.132;-1.586;2023-04-06T06:06:11;100495.91;;;12.96;100.00
71165;BME280;58859;55.132;-1.586;2023-04-06T06:08:36;100499.66;;;13.09;100.00
71165;BME280;58859;55.132;-1.586;2023-04-06T06:11:02;100487.50;;;13.33;100.00
71165;BME280;58859;55.132;-1.586;2023-04-06T06:13:28;100499.13;;;13.22;100.00
71165;BME280;58859;55.132;-1.586;2023-04-06T06:15:53;100501.91;;;13.59;100.00
71165;BME280;58859;55.132;-1.586;2023-04-06T06:18:19;100501.94;;;13.12;100.00
71165;BME280;58859;55.132;-1.586;2023-04-06T06:20:44;100499.28;;;13.20;100.00
71165;BME280;58859;55.132;-1.586;2023-04-06T06:23:10;100502.19;;;13.25;100.00
71165;BME280;58859;55.132;-1.586;2023-04-06T06:25:35;100501.84;;;13.29;100.00
71165;BME280;58859;55.132;-1.586;2023-04-06T06:28:01;100498.84;;;12.93;100.00
71165;BME280;58859;55.132;-1.586;2023-04-06T06:30:26;100505.19;;;12.98;100.00
71165;BME280;58859;55.132;-1.586;2023-04-06T06:32:52;100496.06;;;12.94;100.00
71165;BME280;58859;55.132;-1.586;2023-04-06T06:35:17;100493.94;;;13.14;100.00
71165;BME280;58859;55.132;-1.586;2023-04-06T06:37:43;100491.31;;;13.06;100.00
71165;BME280;58859;55.132;-1.586;2023-04-06T06:40:09;100482.69;;;13.05;100.00
71165;BME280;58859;55.132;-1.586;2023-04-06T06:42:35;100495.28;;;12.94;100.00
71165;BME280;58859;55.132;-1.586;2023-04-06T06:45:01;100498.25;;;12.83;100.00
71165;BME280;58859;55.132;-1.586;2023-04-06T06:47:26;100492.06;;;13.31;100.00
71165;BME280;58859;55.132;-1.586;2023-04-06T06:49:52;100471.19;;;13.22;100.00
71165;BME280;58859;55.132;-1.586;2023-04-06T06:52:17;100493.69;;;13.70;100.00
71165;BME280;58859;55.132;-1.586;2023-04-06T06:54:42;100509.53;;;13.30;100.00
71165;BME280;58859;55.132;-1.586;2023-04-06T06:57:08;100501.66;;;13.38;100.00
71165;BME280;58859;55.132;-1.586;2023-04-06T06:59:34;100472.13;;;12.91;100.00
71165;BME280;58859;55.132;-1.586;2023-04-06T07:02:00;100512.16;;;13.30;100.00
71165;BME280;58859;55.132;-1.586;2023-04-06T07:04:25;100506.91;;;13.38;100.00
71165;BME280;58859;55.132;-1.586;2023-04-06T07:06:50;100513.72;;;14.01;100.00
71165;BME280;58859;55.132;-1.586;2023-04-06T07:09:17;100510.63;;;13.44;100.00
71165;BME280;58859;55.132;-1.586;2023-04-06T07:11:43;100516.22;;;13.94;100.00
71165;BME280;58859;55.132;-1.586;2023-04-06T07:14:08;100513.75;;;13.39;100.00
71165;BME280;58859;55.132;-1.586;2023-04-06T07:16:34;100518.41;;;13.52;100.00
71165;BME280;58859;55.132;-1.586;2023-04-06T07:19:01;100515.25;;;13.95;100.00
71165;BME280;58859;55.132;-1.586;2023-04-06T07:21:26;100511.06;;;14.31;100.00
71165;BME280;58859;55.132;-1.586;2023-04-06T07:23:52;100508.06;;;13.36;100.00
71165;BME280;58859;55.132;-1.586;2023-04-06T07:26:17;100530.59;;;14.21;100.00
71165;BME280;58859;55.132;-1.586;2023-04-06T07:28:43;100528.09;;;13.82;100.00
71165;BME280;58859;55.132;-1.586;2023-04-06T07:31:08;100525.63;;;13.80;100.00
71165;BME280;58859;55.132;-1.586;2023-04-06T07:33:34;100533.28;;;14.13;100.00
71165;BME280;58859;55.132;-1.586;2023-04-06T07:35:59;100532.59;;;13.88;100.00
71165;BME280;58859;55.132;-1.586;2023-04-06T07:38:25;100531.69;;;14.04;100.00
71165;BME280;58859;55.132;-1.586;2023-04-06T07:40:50;100525.75;;;13.87;100.00
71165;BME280;58859;55.132;-1.586;2023-04-06T07:43:16;100540.75;;;13.93;100.00
71165;BME280;58859;55.132;-1.586;2023-04-06T07:45:41;100541.34;;;13.72;100.00
71165;BME280;58859;55.132;-1.586;2023-04-06T07:48:07;100547.66;;;14.09;100.00
71165;BME280;58859;55.132;-1.586;2023-04-06T07:50:32;100540.34;;;14.04;100.00
71165;BME280;58859;55.132;-1.586;2023-04-06T07:52:58;100540.03;;;13.38;100.00
71165;BME280;58859;55.132;-1.586;2023-04-06T07:55:23;100548.81;;;13.53;100.00
71165;BME280;58859;55.132;-1.586;2023-04-06T07:57:49;100552.41;;;13.44;100.00
71165;BME280;58859;55.132;-1.586;2023-04-06T08:00:14;100560.31;;;13.28;100.00
71165;BME280;58859;55.132;-1.586;2023-04-06T08:02:40;100556.00;;;13.51;100.00
71165;BME280;58859;55.132;-1.586;2023-04-06T08:05:05;100549.81;;;14.05;100.00
71165;BME280;58859;55.132;-1.586;2023-04-06T08:07:31;100566.09;;;13.54;100.00
71165;BME280;58859;55.132;-1.586;2023-04-06T08:09:56;100558.50;;;13.75;100.00
71165;BME280;58859;55.132;-1.586;2023-04-06T08:12:22;100568.84;;;13.60;100.00
71165;BME280;58859;55.132;-1.586;2023-04-06T08:14:47;100569.00;;;13.98;100.00
71165;BME280;58859;55.132;-1.586;2023-04-06T08:17:13;100557.75;;;13.89;100.00
71165;BME280;58859;55.132;-1.586;2023-04-06T08:19:38;100558.13;;;13.47;100.00
71165;BME280;58859;55.132;-1.586;2023-04-06T08:22:04;100550.63;;;14.06;100.00
71165;BME280;58859;55.132;-1.586;2023-04-06T08:24:29;100552.06;;;13.08;100.00
71165;BME280;58859;55.132;-1.586;2023-04-06T08:26:57;100536.31;;;14.47;100.00
71165;BME280;58859;55.132;-1.586;2023-04-06T08:29:22;100556.41;;;13.70;100.00
71165;BME280;58859;55.132;-1.586;2023-04-06T08:31:48;100551.84;;;13.95;100.00
71165;BME280;58859;55.132;-1.586;2023-04-06T08:34:13;100552.00;;;13.94;100.00
71165;BME280;58859;55.132;-1.586;2023-04-06T08:36:39;100561.75;;;13.77;100.00
71165;BME280;58859;55.132;-1.586;2023-04-06T08:39:04;100555.97;;;13.59;100.00
71165;BME280;58859;55.132;-1.586;2023-04-06T08:41:30;100569.59;;;13.38;100.00
71165;BME280;58859;55.132;-1.586;2023-04-06T08:43:59;100558.44;;;13.52;100.00
71165;BME280;58859;55.132;-1.586;2023-04-06T08:46:26;100566.75;;;13.56;100.00
71165;BME280;58859;55.132;-1.586;2023-04-06T08:49:01;100561.09;;;14.06;100.00
71165;BME280;58859;55.132;-1.586;2023-04-06T08:51:28;100560.03;;;13.92;100.00
71165;BME280;58859;55.132;-1.586;2023-04-06T08:53:56;100563.50;;;14.15;100.00
71165;BME280;58859;55.132;-1.586;2023-04-06T08:56:27;100570.31;;;13.94;100.00
71165;BME280;58859;55.132;-1.586;2023-04-06T08:58:54;100553.41;;;14.35;100.00
71165;BME280;58859;55.132;-1.586;2023-04-06T09:01:27;100556.69;;;14.29;100.00
71165;BME280;58859;55.132;-1.586;2023-04-06T09:03:58;100564.28;;;14.47;100.00
71165;BME280;58859;55.132;-1.586;2023-04-06T09:06:26;100555.72;;;14.53;100.00
71165;BME280;58859;55.132;-1.586;2023-04-06T09:08:56;100558.59;;;13.90;100.00
71165;BME280;58859;55.132;-1.586;2023-04-06T09:11:23;100556.03;;;14.35;100.00
71165;BME280;58859;55.132;-1.586;2023-04-06T09:13:53;100559.59;;;14.94;100.00
71165;BME280;58859;55.132;-1.586;2023-04-06T09:16:20;100553.28;;;14.51;100.00
71165;BME280;58859;55.132;-1.586;2023-04-06T09:18:46;100559.09;;;14.76;100.00
71165;BME280;58859;55.132;-1.586;2023-04-06T09:21:11;100560.63;;;14.70;100.00
71165;BME280;58859;55.132;-1.586;2023-04-06T09:23:38;100554.13;;;15.47;100.00
71165;BME280;58859;55.132;-1.586;2023-04-06T09:26:14;100570.28;;;15.80;100.00
71165;BME280;58859;55.132;-1.586;2023-04-06T09:28:50;100583.13;;;16.11;100.00
71165;BME280;58859;55.132;-1.586;2023-04-06T09:31:21;100566.06;;;16.85;100.00
71165;BME280;58859;55.132;-1.586;2023-04-06T09:33:47;100572.91;;;16.58;100.00
71165;BME280;58859;55.132;-1.586;2023-04-06T09:36:13;100576.59;;;16.92;100.00
71165;BME280;58859;55.132;-1.586;2023-04-06T09:39:01;100580.41;;;16.89;100.00
71165;BME280;58859;55.132;-1.586;2023-04-06T09:41:31;100565.78;;;15.95;100.00
71165;BME280;58859;55.132;-1.586;2023-04-06T09:44:10;100575.41;;;16.94;100.00
71165;BME280;58859;55.132;-1.586;2023-04-06T09:46:41;100580.63;;;14.86;100.00
71165;BME280;58859;55.132;-1.586;2023-04-06T09:49:07;100581.41;;;15.68;100.00
71165;BME280;58859;55.132;-1.586;2023-04-06T09:51:47;100583.56;;;15.64;100.00
71165;BME280;58859;55.132;-1.586;2023-04-06T09:54:20;100584.47;;;15.86;100.00
71165;BME280;58859;55.132;-1.586;2023-04-06T09:56:50;100581.84;;;16.07;100.00
71165;BME280;58859;55.132;-1.586;2023-04-06T10:01:55;100585.94;;;17.29;100.00
71165;BME280;58859;55.132;-1.586;2023-04-06T10:04:37;100591.78;;;17.24;100.00
71165;BME280;58859;55.132;-1.586;2023-04-06T10:07:07;100588.22;;;17.04;100.00
71165;BME280;58859;55.132;-1.586;2023-04-06T10:09:35;100599.19;;;16.86;100.00
71165;BME280;58859;55.132;-1.586;2023-04-06T10:12:06;100591.50;;;16.21;100.00
71165;BME280;58859;55.132;-1.586;2023-04-06T10:14:34;100600.09;;;17.28;100.00
71165;BME280;58859;55.132;-1.586;2023-04-06T10:17:05;100590.13;;;16.89;100.00
71165;BME280;58859;55.132;-1.586;2023-04-06T10:19:40;100581.88;;;16.28;100.00
71165;BME280;58859;55.132;-1.586;2023-04-06T10:22:08;100595.03;;;16.71;100.00
71165;BME280;58859;55.132;-1.586;2023-04-06T10:24:36;100597.72;;;16.56;100.00
71165;BME280;58859;55.132;-1.586;2023-04-06T10:27:02;100603.81;;;17.12;100.00
71165;BME280;58859;55.132;-1.586;2023-04-06T10:29:28;100591.25;;;17.35;100.00
71165;BME280;58859;55.132;-1.586;2023-04-06T10:32:05;100594.72;;;16.59;100.00
71165;BME280;58859;55.132;-1.586;2023-04-06T10:34:34;100595.56;;;16.45;100.00
71165;BME280;58859;55.132;-1.586;2023-04-06T10:37:10;100597.75;;;16.84;100.00
71165;BME280;58859;55.132;-1.586;2023-04-06T10:39:45;100602.09;;;16.98;100.00
71165;BME280;58859;55.132;-1.586;2023-04-06T10:42:11;100589.19;;;16.75;100.00
71165;BME280;58859;55.132;-1.586;2023-04-06T10:44:42;100594.00;;;16.29;100.00
71165;BME280;58859;55.132;-1.586;2023-04-06T10:47:16;100593.13;;;16.22;100.00
71165;BME280;58859;55.132;-1.586;2023-04-06T10:49:42;100593.06;;;16.16;100.00
71165;BME280;58859;55.132;-1.586;2023-04-06T10:52:07;100597.06;;;16.96;100.00
71165;BME280;58859;55.132;-1.586;2023-04-06T10:54:33;100600.72;;;16.32;100.00
71165;BME280;58859;55.132;-1.586;2023-04-06T10:56:59;100596.38;;;17.15;100.00
71165;BME280;58859;55.132;-1.586;2023-04-06T10:59:28;100602.47;;;16.88;100.00
71165;BME280;58859;55.132;-1.586;2023-04-06T11:01:54;100603.34;;;15.96;100.00
71165;BME280;58859;55.132;-1.586;2023-04-06T11:04:20;100608.09;;;16.85;100.00
71165;BME280;58859;55.132;-1.586;2023-04-06T11:06:47;100606.13;;;16.94;100.00
71165;BME280;58859;55.132;-1.586;2023-04-06T11:09:29;100606.19;;;17.28;100.00
71165;BME280;58859;55.132;-1.586;2023-04-06T11:11:56;100609.25;;;17.38;100.00
71165;BME280;58859;55.132;-1.586;2023-04-06T11:14:22;100601.25;;;17.53;100.00
71165;BME280;58859;55.132;-1.586;2023-04-06T11:16:48;100606.69;;;17.51;100.00
71165;BME280;58859;55.132;-1.586;2023-04-06T11:19:15;100603.38;;;17.36;100.00
71165;BME280;58859;55.132;-1.586;2023-04-06T11:24:14;100607.00;;;17.63;100.00
71165;BME280;58859;55.132;-1.586;2023-04-06T11:26:56;100602.06;;;17.19;100.00
71165;BME280;58859;55.132;-1.586;2023-04-06T11:29:23;100608.09;;;17.13;100.00
71165;BME280;58859;55.132;-1.586;2023-04-06T11:31:50;100609.72;;;16.65;100.00
71165;BME280;58859;55.132;-1.586;2023-04-06T11:34:21;100616.28;;;17.59;100.00
71165;BME280;58859;55.132;-1.586;2023-04-06T11:36:48;100610.34;;;17.91;100.00
71165;BME280;58859;55.132;-1.586;2023-04-06T11:39:25;100607.78;;;18.11;100.00
71165;BME280;58859;55.132;-1.586;2023-04-06T11:41:52;100613.03;;;18.04;100.00
71165;BME280;58859;55.132;-1.586;2023-04-06T11:44:38;100612.00;;;18.05;100.00
71165;BME280;58859;55.132;-1.586;2023-04-06T11:47:08;100618.50;;;17.55;100.00
71165;BME280;58859;55.132;-1.586;2023-04-06T11:49:37;100603.91;;;18.00;100.00
71165;BME280;58859;55.132;-1.586;2023-04-06T11:52:20;100619.38;;;18.29;100.00
71165;BME280;58859;55.132;-1.586;2023-04-06T11:54:47;100620.31;;;18.76;100.00
71165;BME280;58859;55.132;-1.586;2023-04-06T11:57:13;100613.38;;;18.62;100.00
71165;BME280;58859;55.132;-1.586;2023-04-06T11:59:38;100614.97;;;19.28;100.00
71165;BME280;58859;55.132;-1.586;2023-04-06T12:02:04;100607.78;;;18.04;100.00
71165;BME280;58859;55.132;-1.586;2023-04-06T12:04:30;100618.09;;;17.99;100.00
71165;BME280;58859;55.132;-1.586;2023-04-06T12:06:56;100618.97;;;18.26;100.00
71165;BME280;58859;55.132;-1.586;2023-04-06T12:09:22;100618.88;;;18.80;100.00
71165;BME280;58859;55.132;-1.586;2023-04-06T12:11:47;100623.03;;;17.68;100.00
71165;BME280;58859;55.132;-1.586;2023-04-06T12:14:13;100634.69;;;17.59;100.00
71165;BME280;58859;55.132;-1.586;2023-04-06T12:16:38;100630.78;;;17.89;100.00
71165;BME280;58859;55.132;-1.586;2023-04-06T12:19:04;100632.59;;;17.89;100.00
71165;BME280;58859;55.132;-1.586;2023-04-06T12:21:30;100630.16;;;18.41;100.00
71165;BME280;58859;55.132;-1.586;2023-04-06T12:23:59;100624.22;;;18.13;100.00
71165;BME280;58859;55.132;-1.586;2023-04-06T12:26:26;100627.06;;;18.24;100.00
71165;BME280;58859;55.132;-1.586;2023-04-06T12:28:52;100635.56;;;18.20;100.00
71165;BME280;58859;55.132;-1.586;2023-04-06T12:31:18;100640.19;;;18.11;100.00
71165;BME280;58859;55.132;-1.586;2023-04-06T12:33:48;100643.84;;;18.10;100.00